sensor_id;sensor_type;location;lat;lon;timestamp;P1;durP1;ratioP1;P2;durP2;ratioP2
2055;SDS011;1033;52.560;13.374;2024-03-07T00:00:16;39.90;;;10.40;;
2055;SDS011;1033;52.560;13.374;2024-03-07T00:02:46;34.40;;;9.35;;
2055;SDS011;1033;52.560;13.374;2024-03-07T00:05:16;5.95;;;4.68;;
2055;SDS011;1033;52.560;13.374;2024-03-07T00:07:46;12.23;;;5.97;;
2055;SDS011;1033;52.560;13.374;2024-03-07T00:10:15;18.40;;;6.97;;
2055;SDS011;1033;52.560;13.374;2024-03-07T00:12:45;13.25;;;6.78;;
2055;SDS011;1033;52.560;13.374;2024-03-07T00:15:15;18.88;;;7.88;;
2055;SDS011;1033;52.560;13.374;2024-03-07T00:17:44;24.70;;;7.55;;
2055;SDS011;1033;52.560;13.374;2024-03-07T00:20:13;6.85;;;4.10;;
2055;SDS011;1033;52.560;13.374;2024-03-07T00:22:46;16.40;;;8.45;;
2055;SDS011;1033;52.560;13.374;2024-03-07T00:25:15;16.83;;;7.13;;
2055;SDS011;1033;52.560;13.374;2024-03-07T00:27:48;17.10;;;8.02;;
2055;SDS011;1033;52.560;13.374;2024-03-07T00:30:19;16.75;;;7.20;;
2055;SDS011;1033;52.560;13.374;2024-03-07T00:32:48;7.40;;;6.57;;
2055;SDS011;1033;52.560;13.374;2024-03-07T00:35:18;16.02;;;6.60;;
2055;SDS011;1033;52.560;13.374;2024-03-07T00:37:47;15.82;;;7.13;;
2055;SDS011;1033;52.560;13.374;2024-03-07T00:40:18;8.60;;;7.70;;
2055;SDS011;1033;52.560;13.374;2024-03-07T00:42:49;9.70;;;4.97;;
2055;SDS011;1033;52.560;13.374;2024-03-07T00:45:18;8.75;;;5.30;;
2055;SDS011;1033;52.560;13.374;2024-03-07T00:47:46;17.27;;;7.97;;
2055;SDS011;1033;52.560;13.374;2024-03-07T00:50:16;8.15;;;6.53;;
2055;SDS011;1033;52.560;13.374;2024-03-07T00:52:45;26.77;;;12.00;;
2055;SDS011;1033;52.560;13.374;2024-03-07T00:55:14;15.23;;;6.75;;
2055;SDS011;1033;52.560;13.374;2024-03-07T00:57:44;38.75;;;8.07;;
2055;SDS011;1033;52.560;13.374;2024-03-07T01:00:15;13.57;;;7.85;;
2055;SDS011;1033;52.560;13.374;2024-03-07T01:02:48;14.70;;;7.28;;
2055;SDS011;1033;52.560;13.374;2024-03-07T01:05:19;23.10;;;9.35;;
2055;SDS011;1033;52.560;13.374;2024-03-07T01:07:48;30.67;;;6.90;;
2055;SDS011;1033;52.560;13.374;2024-03-07T01:10:17;19.67;;;6.63;;
2055;SDS011;1033;52.560;13.374;2024-03-07T01:12:46;12.55;;;6.20;;
2055;SDS011;1033;52.560;13.374;2024-03-07T01:15:18;15.93;;;6.82;;
2055;SDS011;1033;52.560;13.374;2024-03-07T01:17:47;19.40;;;8.80;;
2055;SDS011;1033;52.560;13.374;2024-03-07T01:20:15;12.57;;;6.05;;
2055;SDS011;1033;52.560;13.374;2024-03-07T01:22:45;8.02;;;7.20;;
2055;SDS011;1033;52.560;13.374;2024-03-07T01:25:14;13.48;;;9.98;;
2055;SDS011;1033;52.560;13.374;2024-03-07T01:27:43;24.42;;;7.50;;
2055;SDS011;1033;52.560;13.374;2024-03-07T01:30:14;14.13;;;7.18;;
2055;SDS011;1033;52.560;13.374;2024-03-07T01:32:44;10.23;;;7.78;;
2055;SDS011;1033;52.560;13.374;2024-03-07T01:35:13;15.10;;;6.22;;
2055;SDS011;1033;52.560;13.374;2024-03-07T01:37:42;11.70;;;6.68;;
2055;SDS011;1033;52.560;13.374;2024-03-07T01:40:11;22.60;;;10.25;;
2055;SDS011;1033;52.560;13.374;2024-03-07T01:42:41;11.50;;;9.13;;
2055;SDS011;1033;52.560;13.374;2024-03-07T01:45:10;17.00;;;8.57;;
2055;SDS011;1033;52.560;13.374;2024-03-07T01:47:41;19.52;;;7.20;;
2055;SDS011;1033;52.560;13.374;2024-03-07T01:50:12;14.85;;;9.25;;
2055;SDS011;1033;52.560;13.374;2024-03-07T01:52:42;13.80;;;6.10;;
2055;SDS011;1033;52.560;13.374;2024-03-07T01:55:11;15.90;;;7.57;;
2055;SDS011;1033;52.560;13.374;2024-03-07T01:57:41;13.13;;;6.53;;
2055;SDS011;1033;52.560;13.374;2024-03-07T02:00:12;10.27;;;5.07;;
2055;SDS011;1033;52.560;13.374;2024-03-07T02:02:41;10.40;;;6.38;;
2055;SDS011;1033;52.560;13.374;2024-03-07T02:05:11;26.50;;;9.35;;
2055;SDS011;1033;52.560;13.374;2024-03-07T02:07:41;17.70;;;8.23;;
2055;SDS011;1033;52.560;13.374;2024-03-07T02:10:11;24.00;;;9.27;;
2055;SDS011;1033;52.560;13.374;2024-03-07T02:12:40;16.38;;;7.97;;
2055;SDS011;1033;52.560;13.374;2024-03-07T02:15:09;14.23;;;6.93;;
2055;SDS011;1033;52.560;13.374;2024-03-07T02:17:40;18.98;;;9.38;;
2055;SDS011;1033;52.560;13.374;2024-03-07T02:20:10;7.82;;;5.93;;
2055;SDS011;1033;52.560;13.374;2024-03-07T02:22:42;20.02;;;9.00;;
2055;SDS011;1033;52.560;13.374;2024-03-07T02:25:11;15.23;;;6.40;;
2055;SDS011;1033;52.560;13.374;2024-03-07T02:27:40;11.63;;;8.15;;
2055;SDS011;1033;52.560;13.374;2024-03-07T02:30:11;8.13;;;4.47;;
2055;SDS011;1033;52.560;13.374;2024-03-07T02:32:41;9.70;;;6.30;;
2055;SDS011;1033;52.560;13.374;2024-03-07T02:35:15;10.50;;;8.82;;
2055;SDS011;1033;52.560;13.374;2024-03-07T02:37:46;27.23;;;10.18;;
2055;SDS011;1033;52.560;13.374;2024-03-07T02:40:15;18.10;;;7.80;;
2055;SDS011;1033;52.560;13.374;2024-03-07T02:42:44;17.10;;;7.90;;
2055;SDS011;1033;52.560;13.374;2024-03-07T02:45:12;16.45;;;7.40;;
2055;SDS011;1033;52.560;13.374;2024-03-07T02:47:42;18.13;;;8.00;;
2055;SDS011;1033;52.560;13.374;2024-03-07T02:50:11;13.75;;;6.05;;
2055;SDS011;1033;52.560;13.374;2024-03-07T02:52:45;6.63;;;5.95;;
2055;SDS011;1033;52.560;13.374;2024-03-07T02:55:14;13.60;;;8.57;;
2055;SDS011;1033;52.560;13.374;2024-03-07T02:57:43;15.32;;;6.15;;
2055;SDS011;1033;52.560;13.374;2024-03-07T03:00:13;14.43;;;5.55;;
2055;SDS011;1033;52.560;13.374;2024-03-07T03:02:48;16.75;;;7.35;;
2055;SDS011;1033;52.560;13.374;2024-03-07T03:05:17;6.95;;;5.68;;
2055;SDS011;1033;52.560;13.374;2024-03-07T03:07:47;17.92;;;8.30;;
2055;SDS011;1033;52.560;13.374;2024-03-07T03:14:30;15.13;;;6.22;;
2055;SDS011;1033;52.560;13.374;2024-03-07T03:16:59;18.63;;;6.35;;
2055;SDS011;1033;52.560;13.374;2024-03-07T03:19:29;14.63;;;9.13;;
2055;SDS011;1033;52.560;13.374;2024-03-07T03:21:58;12.50;;;6.18;;
2055;SDS011;1033;52.560;13.374;2024-03-07T03:24:28;9.63;;;7.63;;
2055;SDS011;1033;52.560;13.374;2024-03-07T03:26:57;31.50;;;11.15;;
2055;SDS011;1033;52.560;13.374;2024-03-07T03:29:26;16.67;;;6.50;;
2055;SDS011;1033;52.560;13.374;2024-03-07T03:31:55;6.95;;;3.83;;
2055;SDS011;1033;52.560;13.374;2024-03-07T03:34:24;24.80;;;11.43;;
2055;SDS011;1033;52.560;13.374;2024-03-07T03:36:53;10.68;;;4.70;;
2055;SDS011;1033;52.560;13.374;2024-03-07T03:39:21;31.75;;;8.23;;
2055;SDS011;1033;52.560;13.374;2024-03-07T03:41:52;14.80;;;9.50;;
2055;SDS011;1033;52.560;13.374;2024-03-07T03:44:20;21.40;;;10.07;;
2055;SDS011;1033;52.560;13.374;2024-03-07T03:46:49;29.73;;;7.78;;
2055;SDS011;1033;52.560;13.374;2024-03-07T03:49:18;8.95;;;5.75;;
2055;SDS011;1033;52.560;13.374;2024-03-07T03:51:47;11.43;;;8.18;;
2055;SDS011;1033;52.560;13.374;2024-03-07T03:54:15;6.55;;;5.65;;
2055;SDS011;1033;52.560;13.374;2024-03-07T03:56:45;16.42;;;7.60;;
2055;SDS011;1033;52.560;13.374;2024-03-07T03:59:15;16.33;;;6.78;;
2055;SDS011;1033;52.560;13.374;2024-03-07T04:01:44;14.27;;;8.50;;
2055;SDS011;1033;52.560;13.374;2024-03-07T04:04:14;15.43;;;8.07;;
2055;SDS011;1033;52.560;13.374;2024-03-07T04:06:44;10.23;;;5.80;;
2055;SDS011;1033;52.560;13.374;2024-03-07T04:09:14;19.30;;;7.60;;
2055;SDS011;1033;52.560;13.374;2024-03-07T04:11:44;18.17;;;10.70;;
2055;SDS011;1033;52.560;13.374;2024-03-07T04:14:13;20.20;;;8.15;;
2055;SDS011;1033;52.560;13.374;2024-03-07T04:16:43;16.85;;;8.05;;
2055;SDS011;1033;52.560;13.374;2024-03-07T04:19:12;19.17;;;7.70;;
2055;SDS011;1033;52.560;13.374;2024-03-07T04:21:41;19.15;;;8.55;;
2055;SDS011;1033;52.560;13.374;2024-03-07T04:24:10;9.38;;;4.95;;
2055;SDS011;1033;52.560;13.374;2024-03-07T04:26:39;18.88;;;6.07;;
2055;SDS011;1033;52.560;13.374;2024-03-07T04:29:08;7.80;;;4.90;;
2055;SDS011;1033;52.560;13.374;2024-03-07T04:31:38;15.38;;;8.35;;
2055;SDS011;1033;52.560;13.374;2024-03-07T04:34:07;13.13;;;4.60;;
2055;SDS011;1033;52.560;13.374;2024-03-07T04:36:36;15.93;;;6.28;;
2055;SDS011;1033;52.560;13.374;2024-03-07T04:39:04;13.90;;;9.50;;
2055;SDS011;1033;52.560;13.374;2024-03-07T04:41:41;17.40;;;7.85;;
2055;SDS011;1033;52.560;13.374;2024-03-07T04:44:09;10.13;;;5.38;;
2055;SDS011;1033;52.560;13.374;2024-03-07T04:46:39;20.15;;;7.75;;
2055;SDS011;1033;52.560;13.374;2024-03-07T04:49:10;6.78;;;4.50;;
2055;SDS011;1033;52.560;13.374;2024-03-07T04:51:40;15.90;;;5.55;;
2055;SDS011;1033;52.560;13.374;2024-03-07T04:54:09;6.82;;;6.07;;
2055;SDS011;1033;52.560;13.374;2024-03-07T04:56:38;6.13;;;5.57;;
2055;SDS011;1033;52.560;13.374;2024-03-07T04:59:07;10.15;;;7.57;;
2055;SDS011;1033;52.560;13.374;2024-03-07T05:01:39;8.98;;;5.93;;
2055;SDS011;1033;52.560;13.374;2024-03-07T05:04:08;17.20;;;6.20;;
2055;SDS011;1033;52.560;13.374;2024-03-07T05:06:38;11.50;;;7.22;;
2055;SDS011;1033;52.560;13.374;2024-03-07T05:09:07;9.85;;;7.82;;
2055;SDS011;1033;52.560;13.374;2024-03-07T05:11:49;8.88;;;2.63;;
2055;SDS011;1033;52.560;13.374;2024-03-07T05:14:19;7.82;;;5.53;;
2055;SDS011;1033;52.560;13.374;2024-03-07T05:16:49;25.50;;;10.73;;
2055;SDS011;1033;52.560;13.374;2024-03-07T05:19:31;16.23;;;8.35;;
2055;SDS011;1033;52.560;13.374;2024-03-07T05:22:00;6.28;;;4.68;;
2055;SDS011;1033;52.560;13.374;2024-03-07T05:24:31;16.33;;;5.55;;
2055;SDS011;1033;52.560;13.374;2024-03-07T05:27:00;20.40;;;8.35;;
2055;SDS011;1033;52.560;13.374;2024-03-07T05:29:29;6.85;;;3.50;;
2055;SDS011;1033;52.560;13.374;2024-03-07T05:34:52;4.65;;;4.35;;
2055;SDS011;1033;52.560;13.374;2024-03-07T05:37:21;9.93;;;6.10;;
2055;SDS011;1033;52.560;13.374;2024-03-07T05:39:50;15.82;;;8.00;;
2055;SDS011;1033;52.560;13.374;2024-03-07T05:42:20;5.90;;;5.45;;
2055;SDS011;1033;52.560;13.374;2024-03-07T05:44:51;15.73;;;7.55;;
2055;SDS011;1033;52.560;13.374;2024-03-07T05:47:22;14.18;;;5.45;;
2055;SDS011;1033;52.560;13.374;2024-03-07T05:49:51;6.65;;;6.15;;
2055;SDS011;1033;52.560;13.374;2024-03-07T05:52:20;9.38;;;4.00;;
2055;SDS011;1033;52.560;13.374;2024-03-07T05:54:49;5.88;;;5.38;;
2055;SDS011;1033;52.560;13.374;2024-03-07T05:57:17;13.40;;;8.95;;
2055;SDS011;1033;52.560;13.374;2024-03-07T05:59:46;16.15;;;5.65;;
2055;SDS011;1033;52.560;13.374;2024-03-07T06:02:15;9.65;;;7.05;;
2055;SDS011;1033;52.560;13.374;2024-03-07T06:04:45;9.35;;;7.05;;
2055;SDS011;1033;52.560;13.374;2024-03-07T06:07:14;15.50;;;7.80;;
2055;SDS011;1033;52.560;13.374;2024-03-07T06:09:43;10.45;;;4.57;;
2055;SDS011;1033;52.560;13.374;2024-03-07T06:12:12;4.10;;;3.25;;
2055;SDS011;1033;52.560;13.374;2024-03-07T06:14:52;4.82;;;2.42;;
2055;SDS011;1033;52.560;13.374;2024-03-07T06:17:21;5.75;;;4.40;;
2055;SDS011;1033;52.560;13.374;2024-03-07T06:19:51;12.57;;;7.22;;
2055;SDS011;1033;52.560;13.374;2024-03-07T06:22:20;6.30;;;5.70;;
2055;SDS011;1033;52.560;13.374;2024-03-07T06:24:49;9.77;;;4.93;;
2055;SDS011;1033;52.560;13.374;2024-03-07T06:27:18;8.57;;;6.70;;
2055;SDS011;1033;52.560;13.374;2024-03-07T06:29:54;10.07;;;6.72;;
2055;SDS011;1033;52.560;13.374;2024-03-07T06:32:23;7.22;;;6.53;;
2055;SDS011;1033;52.560;13.374;2024-03-07T06:34:54;5.95;;;4.13;;
2055;SDS011;1033;52.560;13.374;2024-03-07T06:37:23;14.80;;;8.93;;
2055;SDS011;1033;52.560;13.374;2024-03-07T06:39:53;7.55;;;4.13;;
2055;SDS011;1033;52.560;13.374;2024-03-07T06:42:21;9.90;;;4.63;;
2055;SDS011;1033;52.560;13.374;2024-03-07T06:44:50;7.43;;;3.75;;
2055;SDS011;1033;52.560;13.374;2024-03-07T06:47:19;10.43;;;6.45;;
2055;SDS011;1033;52.560;13.374;2024-03-07T06:49:49;9.30;;;6.20;;
2055;SDS011;1033;52.560;13.374;2024-03-07T06:52:20;10.63;;;5.53;;
2055;SDS011;1033;52.560;13.374;2024-03-07T06:54:49;12.63;;;7.05;;
2055;SDS011;1033;52.560;13.374;2024-03-07T06:57:17;9.65;;;3.80;;
2055;SDS011;1033;52.560;13.374;2024-03-07T06:59:46;8.27;;;5.65;;
2055;SDS011;1033;52.560;13.374;2024-03-07T07:02:15;19.67;;;5.32;;
2055;SDS011;1033;52.560;13.374;2024-03-07T07:04:44;9.10;;;3.78;;
2055;SDS011;1033;52.560;13.374;2024-03-07T07:07:14;5.68;;;4.30;;
2055;SDS011;1033;52.560;13.374;2024-03-07T07:09:44;7.38;;;5.57;;
2055;SDS011;1033;52.560;13.374;2024-03-07T07:12:16;7.15;;;5.53;;
2055;SDS011;1033;52.560;13.374;2024-03-07T07:14:46;12.02;;;4.40;;
2055;SDS011;1033;52.560;13.374;2024-03-07T07:17:15;7.93;;;4.32;;
2055;SDS011;1033;52.560;13.374;2024-03-07T07:19:43;11.85;;;6.25;;
2055;SDS011;1033;52.560;13.374;2024-03-07T07:22:13;3.08;;;2.78;;
2055;SDS011;1033;52.560;13.374;2024-03-07T07:24:41;6.13;;;5.00;;
2055;SDS011;1033;52.560;13.374;2024-03-07T07:27:11;5.75;;;5.03;;
2055;SDS011;1033;52.560;13.374;2024-03-07T07:29:41;18.23;;;4.95;;
2055;SDS011;1033;52.560;13.374;2024-03-07T07:32:10;6.30;;;4.32;;
2055;SDS011;1033;52.560;13.374;2024-03-07T07:34:39;10.18;;;3.92;;
2055;SDS011;1033;52.560;13.374;2024-03-07T07:37:09;11.80;;;4.97;;
2055;SDS011;1033;52.560;13.374;2024-03-07T07:39:38;5.28;;;4.70;;
2055;SDS011;1033;52.560;13.374;2024-03-07T07:42:08;5.93;;;3.97;;
2055;SDS011;1033;52.560;13.374;2024-03-07T07:44:38;7.97;;;4.85;;
2055;SDS011;1033;52.560;13.374;2024-03-07T07:47:06;13.15;;;4.55;;
2055;SDS011;1033;52.560;13.374;2024-03-07T07:49:35;5.50;;;3.75;;
2055;SDS011;1033;52.560;13.374;2024-03-07T07:52:04;5.70;;;3.70;;
2055;SDS011;1033;52.560;13.374;2024-03-07T07:54:35;3.95;;;3.55;;
2055;SDS011;1033;52.560;13.374;2024-03-07T07:57:04;7.05;;;3.40;;
2055;SDS011;1033;52.560;13.374;2024-03-07T07:59:36;5.65;;;3.05;;
2055;SDS011;1033;52.560;13.374;2024-03-07T08:02:05;11.63;;;4.30;;
2055;SDS011;1033;52.560;13.374;2024-03-07T08:04:34;6.38;;;5.38;;
2055;SDS011;1033;52.560;13.374;2024-03-07T08:07:03;3.85;;;3.60;;
2055;SDS011;1033;52.560;13.374;2024-03-07T08:09:33;4.80;;;4.38;;
2055;SDS011;1033;52.560;13.374;2024-03-07T08:12:02;12.30;;;5.65;;
2055;SDS011;1033;52.560;13.374;2024-03-07T08:14:32;8.38;;;5.72;;
2055;SDS011;1033;52.560;13.374;2024-03-07T08:17:03;4.78;;;2.75;;
2055;SDS011;1033;52.560;13.374;2024-03-07T08:19:32;10.73;;;3.70;;
2055;SDS011;1033;52.560;13.374;2024-03-07T08:22:01;4.80;;;4.50;;
2055;SDS011;1033;52.560;13.374;2024-03-07T08:24:30;4.47;;;3.35;;
2055;SDS011;1033;52.560;13.374;2024-03-07T08:26:59;5.93;;;5.30;;
2055;SDS011;1033;52.560;13.374;2024-03-07T08:29:28;4.68;;;3.08;;
2055;SDS011;1033;52.560;13.374;2024-03-07T08:31:57;10.95;;;4.65;;
2055;SDS011;1033;52.560;13.374;2024-03-07T08:34:27;11.02;;;4.47;;
2055;SDS011;1033;52.560;13.374;2024-03-07T08:36:56;2.50;;;1.85;;
2055;SDS011;1033;52.560;13.374;2024-03-07T08:39:25;3.80;;;2.90;;
2055;SDS011;1033;52.560;13.374;2024-03-07T08:41:54;4.30;;;2.00;;
2055;SDS011;1033;52.560;13.374;2024-03-07T08:44:22;7.30;;;6.25;;
2055;SDS011;1033;52.560;13.374;2024-03-07T08:46:51;6.68;;;4.65;;
2055;SDS011;1033;52.560;13.374;2024-03-07T08:49:19;4.30;;;3.53;;
2055;SDS011;1033;52.560;13.374;2024-03-07T08:51:50;4.88;;;4.30;;
2055;SDS011;1033;52.560;13.374;2024-03-07T08:54:19;5.95;;;3.35;;
2055;SDS011;1033;52.560;13.374;2024-03-07T08:56:48;10.30;;;4.75;;
2055;SDS011;1033;52.560;13.374;2024-03-07T08:59:16;16.17;;;4.53;;
2055;SDS011;1033;52.560;13.374;2024-03-07T09:01:46;10.18;;;3.80;;
2055;SDS011;1033;52.560;13.374;2024-03-07T09:04:15;5.25;;;3.42;;
2055;SDS011;1033;52.560;13.374;2024-03-07T09:06:44;2.53;;;2.38;;
2055;SDS011;1033;52.560;13.374;2024-03-07T09:09:14;6.22;;;5.65;;
2055;SDS011;1033;52.560;13.374;2024-03-07T09:11:46;3.38;;;3.00;;
2055;SDS011;1033;52.560;13.374;2024-03-07T09:14:15;2.60;;;2.20;;
2055;SDS011;1033;52.560;13.374;2024-03-07T09:16:44;4.45;;;2.95;;
2055;SDS011;1033;52.560;13.374;2024-03-07T09:19:15;3.28;;;2.72;;
2055;SDS011;1033;52.560;13.374;2024-03-07T09:21:46;15.68;;;3.30;;
2055;SDS011;1033;52.560;13.374;2024-03-07T09:24:18;9.13;;;4.05;;
2055;SDS011;1033;52.560;13.374;2024-03-07T09:26:49;3.85;;;2.75;;
2055;SDS011;1033;52.560;13.374;2024-03-07T09:29:19;2.30;;;2.10;;
2055;SDS011;1033;52.560;13.374;2024-03-07T09:31:49;4.28;;;3.35;;
2055;SDS011;1033;52.560;13.374;2024-03-07T09:34:20;5.35;;;4.82;;
2055;SDS011;1033;52.560;13.374;2024-03-07T09:36:49;5.88;;;4.78;;
2055;SDS011;1033;52.560;13.374;2024-03-07T09:39:19;4.70;;;2.92;;
2055;SDS011;1033;52.560;13.374;2024-03-07T09:41:48;6.20;;;3.78;;
2055;SDS011;1033;52.560;13.374;2024-03-07T09:44:19;7.10;;;5.00;;
2055;SDS011;1033;52.560;13.374;2024-03-07T09:46:49;4.22;;;3.20;;
2055;SDS011;1033;52.560;13.374;2024-03-07T09:49:21;2.85;;;2.63;;
2055;SDS011;1033;52.560;13.374;2024-03-07T09:51:50;6.00;;;5.40;;
2055;SDS011;1033;52.560;13.374;2024-03-07T09:54:22;7.28;;;3.55;;
2055;SDS011;1033;52.560;13.374;2024-03-07T09:56:51;5.95;;;3.70;;
2055;SDS011;1033;52.560;13.374;2024-03-07T09:59:21;6.18;;;4.35;;
2055;SDS011;1033;52.560;13.374;2024-03-07T10:01:54;4.18;;;3.78;;
2055;SDS011;1033;52.560;13.374;2024-03-07T10:04:27;6.55;;;2.53;;
2055;SDS011;1033;52.560;13.374;2024-03-07T10:07:03;7.00;;;1.90;;
2055;SDS011;1033;52.560;13.374;2024-03-07T10:09:39;6.60;;;3.40;;
2055;SDS011;1033;52.560;13.374;2024-03-07T10:12:08;4.88;;;3.22;;
2055;SDS011;1033;52.560;13.374;2024-03-07T10:14:45;2.28;;;2.08;;
2055;SDS011;1033;52.560;13.374;2024-03-07T10:17:17;5.18;;;3.35;;
2055;SDS011;1033;52.560;13.374;2024-03-07T10:19:46;4.85;;;3.05;;
2055;SDS011;1033;52.560;13.374;2024-03-07T10:22:17;3.47;;;2.70;;
2055;SDS011;1033;52.560;13.374;2024-03-07T10:24:51;5.25;;;2.85;;
2055;SDS011;1033;52.560;13.374;2024-03-07T10:27:23;3.03;;;2.47;;
2055;SDS011;1033;52.560;13.374;2024-03-07T10:29:53;4.32;;;3.05;;
2055;SDS011;1033;52.560;13.374;2024-03-07T10:32:22;4.85;;;3.35;;
2055;SDS011;1033;52.560;13.374;2024-03-07T10:34:52;7.13;;;2.95;;
2055;SDS011;1033;52.560;13.374;2024-03-07T10:37:21;6.20;;;1.92;;
2055;SDS011;1033;52.560;13.374;2024-03-07T10:39:53;4.32;;;3.08;;
2055;SDS011;1033;52.560;13.374;2024-03-07T10:42:22;3.45;;;3.15;;
2055;SDS011;1033;52.560;13.374;2024-03-07T10:45:00;4.82;;;3.60;;
2055;SDS011;1033;52.560;13.374;2024-03-07T10:47:37;3.80;;;2.70;;
2055;SDS011;1033;52.560;13.374;2024-03-07T10:50:10;4.13;;;2.35;;
2055;SDS011;1033;52.560;13.374;2024-03-07T10:52:47;5.20;;;2.45;;
2055;SDS011;1033;52.560;13.374;2024-03-07T10:55:27;6.35;;;3.58;;
2055;SDS011;1033;52.560;13.374;2024-03-07T10:58:05;8.23;;;3.33;;
2055;SDS011;1033;52.560;13.374;2024-03-07T11:00:39;4.82;;;2.72;;
2055;SDS011;1033;52.560;13.374;2024-03-07T11:03:12;3.47;;;2.28;;
2055;SDS011;1033;52.560;13.374;2024-03-07T11:05:42;5.22;;;4.18;;
2055;SDS011;1033;52.560;13.374;2024-03-07T11:08:12;6.20;;;4.82;;
2055;SDS011;1033;52.560;13.374;2024-03-07T11:10:43;7.65;;;3.47;;
2055;SDS011;1033;52.560;13.374;2024-03-07T11:13:14;5.28;;;2.92;;
2055;SDS011;1033;52.560;13.374;2024-03-07T11:15:44;6.18;;;3.17;;
2055;SDS011;1033;52.560;13.374;2024-03-07T11:18:16;6.82;;;3.55;;
2055;SDS011;1033;52.560;13.374;2024-03-07T11:20:44;3.85;;;3.42;;
2055;SDS011;1033;52.560;13.374;2024-03-07T11:23:24;7.50;;;4.45;;
2055;SDS011;1033;52.560;13.374;2024-03-07T11:25:57;3.58;;;3.28;;
2055;SDS011;1033;52.560;13.374;2024-03-07T11:28:34;3.90;;;3.00;;
2055;SDS011;1033;52.560;13.374;2024-03-07T11:31:08;2.25;;;2.03;;
2055;SDS011;1033;52.560;13.374;2024-03-07T11:33:37;5.65;;;3.22;;
2055;SDS011;1033;52.560;13.374;2024-03-07T11:36:08;7.53;;;1.95;;
2055;SDS011;1033;52.560;13.374;2024-03-07T11:38:44;3.35;;;2.08;;
2055;SDS011;1033;52.560;13.374;2024-03-07T11:41:18;4.60;;;3.38;;
2055;SDS011;1033;52.560;13.374;2024-03-07T11:43:47;7.60;;;5.70;;
2055;SDS011;1033;52.560;13.374;2024-03-07T11:46:16;4.88;;;3.25;;
2055;SDS011;1033;52.560;13.374;2024-03-07T11:48:47;7.20;;;4.40;;
2055;SDS011;1033;52.560;13.374;2024-03-07T11:51:17;5.80;;;3.65;;
2055;SDS011;1033;52.560;13.374;2024-03-07T11:53:51;11.95;;;4.43;;
2055;SDS011;1033;52.560;13.374;2024-03-07T11:56:25;5.15;;;3.47;;
2055;SDS011;1033;52.560;13.374;2024-03-07T11:58:54;6.47;;;3.50;;
2055;SDS011;1033;52.560;13.374;2024-03-07T12:01:28;7.65;;;4.07;;
2055;SDS011;1033;52.560;13.374;2024-03-07T12:04:00;3.42;;;3.20;;
2055;SDS011;1033;52.560;13.374;2024-03-07T12:06:32;4.97;;;3.25;;
2055;SDS011;1033;52.560;13.374;2024-03-07T12:09:04;11.13;;;4.80;;
2055;SDS011;1033;52.560;13.374;2024-03-07T12:11:43;9.52;;;4.20;;
2055;SDS011;1033;52.560;13.374;2024-03-07T12:14:13;11.13;;;6.30;;
2055;SDS011;1033;52.560;13.374;2024-03-07T12:16:42;3.22;;;2.97;;
2055;SDS011;1033;52.560;13.374;2024-03-07T12:19:12;3.97;;;2.42;;
2055;SDS011;1033;52.560;13.374;2024-03-07T12:21:44;4.32;;;2.95;;
2055;SDS011;1033;52.560;13.374;2024-03-07T12:24:15;6.70;;;2.95;;
2055;SDS011;1033;52.560;13.374;2024-03-07T12:26:45;8.68;;;4.63;;
2055;SDS011;1033;52.560;13.374;2024-03-07T12:29:14;6.38;;;4.78;;
2055;SDS011;1033;52.560;13.374;2024-03-07T12:31:43;7.72;;;4.60;;
2055;SDS011;1033;52.560;13.374;2024-03-07T12:34:12;2.72;;;2.47;;
2055;SDS011;1033;52.560;13.374;2024-03-07T12:36:41;3.20;;;2.50;;
2055;SDS011;1033;52.560;13.374;2024-03-07T12:39:21;2.97;;;2.15;;
2055;SDS011;1033;52.560;13.374;2024-03-07T12:41:57;4.55;;;2.78;;
2055;SDS011;1033;52.560;13.374;2024-03-07T12:44:26;3.42;;;2.42;;
2055;SDS011;1033;52.560;13.374;2024-03-07T12:46:56;11.73;;;5.05;;
2055;SDS011;1033;52.560;13.374;2024-03-07T12:49:25;6.72;;;4.53;;
2055;SDS011;1033;52.560;13.374;2024-03-07T12:51:54;4.25;;;2.40;;
2055;SDS011;1033;52.560;13.374;2024-03-07T12:54:23;7.43;;;4.75;;
2055;SDS011;1033;52.560;13.374;2024-03-07T12:56:54;5.93;;;3.95;;
2055;SDS011;1033;52.560;13.374;2024-03-07T12:59:25;4.47;;;3.50;;
2055;SDS011;1033;52.560;13.374;2024-03-07T13:01:54;3.97;;;3.13;;
2055;SDS011;1033;52.560;13.374;2024-03-07T13:04:24;7.80;;;4.45;;
2055;SDS011;1033;52.560;13.374;2024-03-07T13:06:53;6.93;;;4.45;;
2055;SDS011;1033;52.560;13.374;2024-03-07T13:09:26;6.88;;;4.63;;
2055;SDS011;1033;52.560;13.374;2024-03-07T13:11:54;5.93;;;2.97;;
2055;SDS011;1033;52.560;13.374;2024-03-07T13:14:27;5.45;;;3.90;;
2055;SDS011;1033;52.560;13.374;2024-03-07T13:17:00;11.00;;;4.15;;
2055;SDS011;1033;52.560;13.374;2024-03-07T13:19:29;6.68;;;3.20;;
2055;SDS011;1033;52.560;13.374;2024-03-07T13:21:58;6.70;;;3.08;;
2055;SDS011;1033;52.560;13.374;2024-03-07T13:24:28;4.40;;;4.00;;
2055;SDS011;1033;52.560;13.374;2024-03-07T13:26:58;5.00;;;3.30;;
2055;SDS011;1033;52.560;13.374;2024-03-07T13:29:27;6.68;;;4.55;;
2055;SDS011;1033;52.560;13.374;2024-03-07T13:31:55;6.38;;;4.13;;
2055;SDS011;1033;52.560;13.374;2024-03-07T13:34:26;9.32;;;5.70;;
2055;SDS011;1033;52.560;13.374;2024-03-07T13:36:55;10.15;;;4.78;;
2055;SDS011;1033;52.560;13.374;2024-03-07T13:39:27;6.00;;;3.13;;
2055;SDS011;1033;52.560;13.374;2024-03-07T13:41:57;8.90;;;3.47;;
2055;SDS011;1033;52.560;13.374;2024-03-07T13:44:26;6.63;;;2.95;;
2055;SDS011;1033;52.560;13.374;2024-03-07T13:46:56;5.18;;;2.85;;
2055;SDS011;1033;52.560;13.374;2024-03-07T13:49:26;6.50;;;3.35;;
2055;SDS011;1033;52.560;13.374;2024-03-07T13:51:55;6.43;;;2.95;;
2055;SDS011;1033;52.560;13.374;2024-03-07T13:54:30;5.28;;;3.63;;
2055;SDS011;1033;52.560;13.374;2024-03-07T13:57:05;4.60;;;3.80;;
2055;SDS011;1033;52.560;13.374;2024-03-07T14:02:59;11.95;;;3.20;;
2055;SDS011;1033;52.560;13.374;2024-03-07T14:05:56;5.30;;;4.18;;
2055;SDS011;1033;52.560;13.374;2024-03-07T14:08:46;7.22;;;4.70;;
2055;SDS011;1033;52.560;13.374;2024-03-07T14:11:51;5.68;;;5.00;;
2055;SDS011;1033;52.560;13.374;2024-03-07T14:14:55;5.82;;;5.30;;
2055;SDS011;1033;52.560;13.374;2024-03-07T14:17:59;6.90;;;4.40;;
2055;SDS011;1033;52.560;13.374;2024-03-07T14:20:59;5.57;;;4.03;;
2055;SDS011;1033;52.560;13.374;2024-03-07T14:24:07;3.03;;;2.28;;
2055;SDS011;1033;52.560;13.374;2024-03-07T14:29:54;4.93;;;4.53;;
2055;SDS011;1033;52.560;13.374;2024-03-07T14:32:49;6.32;;;3.03;;
2055;SDS011;1033;52.560;13.374;2024-03-07T14:35:28;6.65;;;4.05;;
2055;SDS011;1033;52.560;13.374;2024-03-07T14:38:04;4.13;;;3.15;;
2055;SDS011;1033;52.560;13.374;2024-03-07T14:40:50;5.63;;;4.95;;
2055;SDS011;1033;52.560;13.374;2024-03-07T14:43:19;5.63;;;3.92;;
2055;SDS011;1033;52.560;13.374;2024-03-07T14:45:51;5.80;;;4.18;;
2055;SDS011;1033;52.560;13.374;2024-03-07T14:48:22;6.88;;;5.80;;
2055;SDS011;1033;52.560;13.374;2024-03-07T14:50:53;3.13;;;1.83;;
2055;SDS011;1033;52.560;13.374;2024-03-07T14:53:22;5.63;;;3.85;;
2055;SDS011;1033;52.560;13.374;2024-03-07T14:55:52;4.03;;;2.85;;
2055;SDS011;1033;52.560;13.374;2024-03-07T14:58:23;5.95;;;3.47;;
2055;SDS011;1033;52.560;13.374;2024-03-07T15:00:54;3.28;;;2.67;;
2055;SDS011;1033;52.560;13.374;2024-03-07T15:03:24;4.10;;;2.53;;
2055;SDS011;1033;52.560;13.374;2024-03-07T15:05:56;7.13;;;2.50;;
2055;SDS011;1033;52.560;13.374;2024-03-07T15:08:26;7.50;;;3.33;;
2055;SDS011;1033;52.560;13.374;2024-03-07T15:10:56;4.53;;;2.97;;
2055;SDS011;1033;52.560;13.374;2024-03-07T15:13:35;4.13;;;3.28;;
2055;SDS011;1033;52.560;13.374;2024-03-07T15:16:06;5.85;;;2.78;;
2055;SDS011;1033;52.560;13.374;2024-03-07T15:18:47;4.85;;;3.63;;
2055;SDS011;1033;52.560;13.374;2024-03-07T15:21:16;5.93;;;3.55;;
2055;SDS011;1033;52.560;13.374;2024-03-07T15:23:46;3.60;;;3.28;;
2055;SDS011;1033;52.560;13.374;2024-03-07T15:26:15;4.97;;;4.30;;
2055;SDS011;1033;52.560;13.374;2024-03-07T15:28:45;3.15;;;2.83;;
2055;SDS011;1033;52.560;13.374;2024-03-07T15:31:15;3.83;;;3.35;;